sensor_id;sensor_type;location;lat;lon;timestamp;temperature;humidity
80931;DHT22;70388;42.698;23.324;2023-12-20T00:01:23;2.80;94.30
80931;DHT22;70388;42.698;23.324;2023-12-20T00:03:48;2.80;94.20
80931;DHT22;70388;42.698;23.324;2023-12-20T00:06:14;2.80;94.00
80931;DHT22;70388;42.698;23.324;2023-12-20T00:08:40;2.80;93.80
80931;DHT22;70388;42.698;23.324;2023-12-20T00:11:06;2.80;94.00
80931;DHT22;70388;42.698;23.324;2023-12-20T00:13:31;2.80;94.00
80931;DHT22;70388;42.698;23.324;2023-12-20T00:15:57;2.90;93.60
80931;DHT22;70388;42.698;23.324;2023-12-20T00:18:23;2.90;93.70
80931;DHT22;70388;42.698;23.324;2023-12-20T00:20:49;3.00;93.00
80931;DHT22;70388;42.698;23.324;2023-12-20T00:23:15;2.90;92.70
80931;DHT22;70388;42.698;23.324;2023-12-20T00:25:40;3.00;92.40
80931;DHT22;70388;42.698;23.324;2023-12-20T00:28:06;2.90;92.40
80931;DHT22;70388;42.698;23.324;2023-12-20T00:30:32;2.90;92.50
80931;DHT22;70388;42.698;23.324;2023-12-20T00:32:58;2.80;92.70
80931;DHT22;70388;42.698;23.324;2023-12-20T00:35:23;2.80;93.00
80931;DHT22;70388;42.698;23.324;2023-12-20T00:37:49;2.50;93.80
80931;DHT22;70388;42.698;23.324;2023-12-20T00:40:15;2.20;94.60
80931;DHT22;70388;42.698;23.324;2023-12-20T00:42:41;2.00;95.00
80931;DHT22;70388;42.698;23.324;2023-12-20T00:45:07;2.10;94.70
80931;DHT22;70388;42.698;23.324;2023-12-20T00:47:33;2.30;93.90
80931;DHT22;70388;42.698;23.324;2023-12-20T00:49:59;2.40;93.10
80931;DHT22;70388;42.698;23.324;2023-12-20T00:52:25;2.50;92.70
80931;DHT22;70388;42.698;23.324;2023-12-20T00:54:51;2.50;92.50
80931;DHT22;70388;42.698;23.324;2023-12-20T00:57:17;2.50;91.90
80931;DHT22;70388;42.698;23.324;2023-12-20T00:59:43;2.40;91.70
80931;DHT22;70388;42.698;23.324;2023-12-20T01:02:09;2.30;91.70
80931;DHT22;70388;42.698;23.324;2023-12-20T01:04:35;2.30;91.80
80931;DHT22;70388;42.698;23.324;2023-12-20T01:07:01;2.20;91.80
80931;DHT22;70388;42.698;23.324;2023-12-20T01:09:27;2.20;92.00
80931;DHT22;70388;42.698;23.324;2023-12-20T01:11:53;2.20;91.90
80931;DHT22;70388;42.698;23.324;2023-12-20T01:14:19;2.20;92.00
80931;DHT22;70388;42.698;23.324;2023-12-20T01:16:45;2.20;92.10
80931;DHT22;70388;42.698;23.324;2023-12-20T01:19:10;2.20;91.70
80931;DHT22;70388;42.698;23.324;2023-12-20T01:21:36;2.00;92.00
80931;DHT22;70388;42.698;23.324;2023-12-20T01:24:02;2.00;91.80
80931;DHT22;70388;42.698;23.324;2023-12-20T01:26:28;2.00;91.90
80931;DHT22;70388;42.698;23.324;2023-12-20T01:28:54;1.90;92.10
80931;DHT22;70388;42.698;23.324;2023-12-20T01:31:19;1.90;92.20
80931;DHT22;70388;42.698;23.324;2023-12-20T01:33:45;1.90;92.40
80931;DHT22;70388;42.698;23.324;2023-12-20T01:36:11;1.90;92.10
80931;DHT22;70388;42.698;23.324;2023-12-20T01:38:37;2.00;92.10
80931;DHT22;70388;42.698;23.324;2023-12-20T01:41:03;1.90;92.40
80931;DHT22;70388;42.698;23.324;2023-12-20T01:43:30;1.90;92.60
80931;DHT22;70388;42.698;23.324;2023-12-20T01:45:57;1.90;92.70
80931;DHT22;70388;42.698;23.324;2023-12-20T01:48:25;1.90;92.60
80931;DHT22;70388;42.698;23.324;2023-12-20T01:50:51;2.00;92.70
80931;DHT22;70388;42.698;23.324;2023-12-20T01:53:20;2.00;92.70
80931;DHT22;70388;42.698;23.324;2023-12-20T01:55:47;2.00;92.40
80931;DHT22;70388;42.698;23.324;2023-12-20T01:58:14;2.00;92.70
80931;DHT22;70388;42.698;23.324;2023-12-20T02:00:41;2.10;92.40
80931;DHT22;70388;42.698;23.324;2023-12-20T02:03:07;2.00;92.30
80931;DHT22;70388;42.698;23.324;2023-12-20T02:05:35;2.00;91.20
80931;DHT22;70388;42.698;23.324;2023-12-20T02:08:01;2.00;91.30
80931;DHT22;70388;42.698;23.324;2023-12-20T02:10:27;1.80;90.60
80931;DHT22;70388;42.698;23.324;2023-12-20T02:12:53;1.80;90.70
80931;DHT22;70388;42.698;23.324;2023-12-20T02:15:19;1.80;90.20
80931;DHT22;70388;42.698;23.324;2023-12-20T02:17:47;1.70;90.60
80931;DHT22;70388;42.698;23.324;2023-12-20T02:20:13;1.50;90.80
80931;DHT22;70388;42.698;23.324;2023-12-20T02:22:38;1.50;90.90
80931;DHT22;70388;42.698;23.324;2023-12-20T02:25:04;1.40;90.60
80931;DHT22;70388;42.698;23.324;2023-12-20T02:27:30;1.30;90.90
80931;DHT22;70388;42.698;23.324;2023-12-20T02:29:57;1.20;91.10
80931;DHT22;70388;42.698;23.324;2023-12-20T02:32:24;1.20;91.30
80931;DHT22;70388;42.698;23.324;2023-12-20T02:34:52;1.00;91.40
80931;DHT22;70388;42.698;23.324;2023-12-20T02:37:18;0.90;91.70
80931;DHT22;70388;42.698;23.324;2023-12-20T02:39:44;0.90;91.90
80931;DHT22;70388;42.698;23.324;2023-12-20T02:42:09;0.90;92.10
80931;DHT22;70388;42.698;23.324;2023-12-20T02:44:35;0.80;92.40
80931;DHT22;70388;42.698;23.324;2023-12-20T02:47:02;0.60;92.70
80931;DHT22;70388;42.698;23.324;2023-12-20T02:49:28;0.60;92.80
80931;DHT22;70388;42.698;23.324;2023-12-20T02:51:53;0.70;93.10
80931;DHT22;70388;42.698;23.324;2023-12-20T02:54:19;0.70;93.10
80931;DHT22;70388;42.698;23.324;2023-12-20T02:56:45;0.70;93.50
80931;DHT22;70388;42.698;23.324;2023-12-20T02:59:11;0.70;93.90
80931;DHT22;70388;42.698;23.324;2023-12-20T03:01:42;0.70;94.30
80931;DHT22;70388;42.698;23.324;2023-12-20T03:04:08;0.70;94.40
80931;DHT22;70388;42.698;23.324;2023-12-20T03:06:34;0.80;94.10
80931;DHT22;70388;42.698;23.324;2023-12-20T03:09:00;0.90;94.00
80931;DHT22;70388;42.698;23.324;2023-12-20T03:11:28;0.90;94.10
80931;DHT22;70388;42.698;23.324;2023-12-20T03:13:55;0.80;94.40
80931;DHT22;70388;42.698;23.324;2023-12-20T03:16:20;0.80;94.70
80931;DHT22;70388;42.698;23.324;2023-12-20T03:18:46;0.70;95.10
80931;DHT22;70388;42.698;23.324;2023-12-20T03:21:12;0.80;96.00
80931;DHT22;70388;42.698;23.324;2023-12-20T03:23:38;0.90;95.90
80931;DHT22;70388;42.698;23.324;2023-12-20T03:26:07;1.10;94.70
80931;DHT22;70388;42.698;23.324;2023-12-20T03:28:33;1.20;93.80
80931;DHT22;70388;42.698;23.324;2023-12-20T03:30:59;1.10;93.80
80931;DHT22;70388;42.698;23.324;2023-12-20T03:33:25;1.10;93.80
80931;DHT22;70388;42.698;23.324;2023-12-20T03:35:50;1.00;94.00
80931;DHT22;70388;42.698;23.324;2023-12-20T03:38:16;1.10;93.80
80931;DHT22;70388;42.698;23.324;2023-12-20T03:40:42;1.10;93.60
80931;DHT22;70388;42.698;23.324;2023-12-20T03:43:08;1.10;93.50
80931;DHT22;70388;42.698;23.324;2023-12-20T03:45:33;1.10;93.80
80931;DHT22;70388;42.698;23.324;2023-12-20T03:47:59;1.20;93.30
80931;DHT22;70388;42.698;23.324;2023-12-20T03:50:26;1.00;93.10
80931;DHT22;70388;42.698;23.324;2023-12-20T03:52:52;0.60;94.50
80931;DHT22;70388;42.698;23.324;2023-12-20T03:55:18;0.30;96.10
80931;DHT22;70388;42.698;23.324;2023-12-20T03:57:44;0.40;96.20
80931;DHT22;70388;42.698;23.324;2023-12-20T04:00:10;0.60;95.70
80931;DHT22;70388;42.698;23.324;2023-12-20T04:02:40;0.70;95.40
80931;DHT22;70388;42.698;23.324;2023-12-20T04:05:08;0.70;95.40
80931;DHT22;70388;42.698;23.324;2023-12-20T04:07:34;0.80;95.00
80931;DHT22;70388;42.698;23.324;2023-12-20T04:10:00;0.90;94.70
80931;DHT22;70388;42.698;23.324;2023-12-20T04:12:29;0.90;94.50
80931;DHT22;70388;42.698;23.324;2023-12-20T04:14:55;1.00;93.80
80931;DHT22;70388;42.698;23.324;2023-12-20T04:17:21;0.90;93.60
80931;DHT22;70388;42.698;23.324;2023-12-20T04:19:48;1.00;93.50
80931;DHT22;70388;42.698;23.324;2023-12-20T04:22:15;1.10;93.50
80931;DHT22;70388;42.698;23.324;2023-12-20T04:24:40;1.10;93.30
80931;DHT22;70388;42.698;23.324;2023-12-20T04:27:08;1.00;93.20
80931;DHT22;70388;42.698;23.324;2023-12-20T04:29:34;1.00;93.50
80931;DHT22;70388;42.698;23.324;2023-12-20T04:32:00;0.80;93.70
80931;DHT22;70388;42.698;23.324;2023-12-20T04:34:25;0.90;94.10
80931;DHT22;70388;42.698;23.324;2023-12-20T04:36:52;0.90;94.20
80931;DHT22;70388;42.698;23.324;2023-12-20T04:39:17;0.90;94.40
80931;DHT22;70388;42.698;23.324;2023-12-20T04:41:43;0.90;94.10
80931;DHT22;70388;42.698;23.324;2023-12-20T04:44:09;0.90;93.80
80931;DHT22;70388;42.698;23.324;2023-12-20T04:46:34;0.90;93.60
80931;DHT22;70388;42.698;23.324;2023-12-20T04:49:01;1.00;93.20
80931;DHT22;70388;42.698;23.324;2023-12-20T04:51:27;0.90;93.50
80931;DHT22;70388;42.698;23.324;2023-12-20T04:53:52;0.90;93.50
80931;DHT22;70388;42.698;23.324;2023-12-20T04:56:18;0.90;93.10
80931;DHT22;70388;42.698;23.324;2023-12-20T04:58:44;1.00;92.80
80931;DHT22;70388;42.698;23.324;2023-12-20T05:01:10;1.00;92.60
80931;DHT22;70388;42.698;23.324;2023-12-20T05:03:37;1.00;92.20
80931;DHT22;70388;42.698;23.324;2023-12-20T05:06:03;0.90;92.20
80931;DHT22;70388;42.698;23.324;2023-12-20T05:08:29;0.90;92.70
80931;DHT22;70388;42.698;23.324;2023-12-20T05:10:55;1.10;92.40
80931;DHT22;70388;42.698;23.324;2023-12-20T05:13:21;1.10;91.50
80931;DHT22;70388;42.698;23.324;2023-12-20T05:15:47;1.10;91.50
80931;DHT22;70388;42.698;23.324;2023-12-20T05:18:13;0.80;91.70
80931;DHT22;70388;42.698;23.324;2023-12-20T05:20:39;0.40;92.90
80931;DHT22;70388;42.698;23.324;2023-12-20T05:23:05;0.10;93.60
80931;DHT22;70388;42.698;23.324;2023-12-20T05:25:32;-0.10;95.50
80931;DHT22;70388;42.698;23.324;2023-12-20T05:27:57;0.20;94.40
80931;DHT22;70388;42.698;23.324;2023-12-20T05:30:23;0.40;93.50
80931;DHT22;70388;42.698;23.324;2023-12-20T05:32:49;0.50;93.10
80931;DHT22;70388;42.698;23.324;2023-12-20T05:35:15;0.70;92.90
80931;DHT22;70388;42.698;23.324;2023-12-20T05:37:41;0.70;92.20
80931;DHT22;70388;42.698;23.324;2023-12-20T05:40:07;0.50;92.90
80931;DHT22;70388;42.698;23.324;2023-12-20T05:42:39;0.50;93.00
80931;DHT22;70388;42.698;23.324;2023-12-20T05:45:05;0.50;93.60
80931;DHT22;70388;42.698;23.324;2023-12-20T05:47:31;0.60;93.50
80931;DHT22;70388;42.698;23.324;2023-12-20T05:49:57;0.60;92.90
80931;DHT22;70388;42.698;23.324;2023-12-20T05:52:23;0.70;92.90
80931;DHT22;70388;42.698;23.324;2023-12-20T05:54:49;0.70;92.70
80931;DHT22;70388;42.698;23.324;2023-12-20T05:57:14;0.50;93.10
80931;DHT22;70388;42.698;23.324;2023-12-20T05:59:40;0.70;93.50
80931;DHT22;70388;42.698;23.324;2023-12-20T06:02:06;0.70;93.30
80931;DHT22;70388;42.698;23.324;2023-12-20T06:04:32;0.60;93.10
80931;DHT22;70388;42.698;23.324;2023-12-20T06:06:58;0.80;93.10
80931;DHT22;70388;42.698;23.324;2023-12-20T06:09:26;0.70;93.00
80931;DHT22;70388;42.698;23.324;2023-12-20T06:11:52;0.80;92.80
80931;DHT22;70388;42.698;23.324;2023-12-20T06:14:18;0.90;92.60
80931;DHT22;70388;42.698;23.324;2023-12-20T06:16:45;1.00;92.00
80931;DHT22;70388;42.698;23.324;2023-12-20T06:19:11;0.90;92.40
80931;DHT22;70388;42.698;23.324;2023-12-20T06:21:37;0.90;92.50
80931;DHT22;70388;42.698;23.324;2023-12-20T06:24:03;1.00;92.50
80931;DHT22;70388;42.698;23.324;2023-12-20T06:26:29;1.00;92.40
80931;DHT22;70388;42.698;23.324;2023-12-20T06:28:55;1.10;92.30
80931;DHT22;70388;42.698;23.324;2023-12-20T06:31:21;1.00;92.10
80931;DHT22;70388;42.698;23.324;2023-12-20T06:33:46;1.00;92.20
80931;DHT22;70388;42.698;23.324;2023-12-20T06:36:13;1.10;92.30
80931;DHT22;70388;42.698;23.324;2023-12-20T06:38:39;1.00;92.10
80931;DHT22;70388;42.698;23.324;2023-12-20T06:41:05;0.90;92.70
80931;DHT22;70388;42.698;23.324;2023-12-20T06:43:31;0.90;93.00
80931;DHT22;70388;42.698;23.324;2023-12-20T06:46:00;1.10;92.80
80931;DHT22;70388;42.698;23.324;2023-12-20T06:48:25;1.00;92.80
80931;DHT22;70388;42.698;23.324;2023-12-20T06:50:51;1.10;92.90
80931;DHT22;70388;42.698;23.324;2023-12-20T06:53:17;1.10;92.90
80931;DHT22;70388;42.698;23.324;2023-12-20T06:55:43;1.30;92.70
80931;DHT22;70388;42.698;23.324;2023-12-20T06:58:09;1.50;92.40
80931;DHT22;70388;42.698;23.324;2023-12-20T07:00:34;1.50;92.00
80931;DHT22;70388;42.698;23.324;2023-12-20T07:03:00;1.60;92.00
80931;DHT22;70388;42.698;23.324;2023-12-20T07:05:26;1.70;91.90
80931;DHT22;70388;42.698;23.324;2023-12-20T07:07:52;1.80;91.70
80931;DHT22;70388;42.698;23.324;2023-12-20T07:10:18;1.70;91.40
80931;DHT22;70388;42.698;23.324;2023-12-20T07:12:43;1.70;91.70
80931;DHT22;70388;42.698;23.324;2023-12-20T07:15:09;1.90;91.40
80931;DHT22;70388;42.698;23.324;2023-12-20T07:17:35;1.90;90.90
80931;DHT22;70388;42.698;23.324;2023-12-20T07:20:01;1.90;91.10
80931;DHT22;70388;42.698;23.324;2023-12-20T07:22:33;2.00;91.20
80931;DHT22;70388;42.698;23.324;2023-12-20T07:24:59;2.10;91.20
80931;DHT22;70388;42.698;23.324;2023-12-20T07:27:25;2.30;90.80
80931;DHT22;70388;42.698;23.324;2023-12-20T07:29:51;2.30;90.30
80931;DHT22;70388;42.698;23.324;2023-12-20T07:32:17;2.50;90.10
80931;DHT22;70388;42.698;23.324;2023-12-20T07:34:43;2.50;89.30
80931;DHT22;70388;42.698;23.324;2023-12-20T07:37:09;2.50;89.30
80931;DHT22;70388;42.698;23.324;2023-12-20T07:39:42;2.50;89.90
80931;DHT22;70388;42.698;23.324;2023-12-20T07:42:08;2.50;89.30
80931;DHT22;70388;42.698;23.324;2023-12-20T07:44:34;2.50;89.30
80931;DHT22;70388;42.698;23.324;2023-12-20T07:47:01;2.40;88.70
80931;DHT22;70388;42.698;23.324;2023-12-20T07:49:27;2.20;89.40
80931;DHT22;70388;42.698;23.324;2023-12-20T07:51:53;2.20;90.30
80931;DHT22;70388;42.698;23.324;2023-12-20T07:54:19;2.20;90.40
80931;DHT22;70388;42.698;23.324;2023-12-20T07:56:46;2.20;90.40
80931;DHT22;70388;42.698;23.324;2023-12-20T07:59:12;2.40;90.00
80931;DHT22;70388;42.698;23.324;2023-12-20T08:01:37;2.50;89.10
80931;DHT22;70388;42.698;23.324;2023-12-20T08:04:03;2.60;88.60
80931;DHT22;70388;42.698;23.324;2023-12-20T08:06:29;2.40;88.10
80931;DHT22;70388;42.698;23.324;2023-12-20T08:08:55;2.40;89.20
80931;DHT22;70388;42.698;23.324;2023-12-20T08:11:20;2.50;88.40
80931;DHT22;70388;42.698;23.324;2023-12-20T08:13:46;2.30;88.70
80931;DHT22;70388;42.698;23.324;2023-12-20T08:16:12;1.90;90.70
80931;DHT22;70388;42.698;23.324;2023-12-20T08:18:39;1.80;91.50
80931;DHT22;70388;42.698;23.324;2023-12-20T08:21:06;1.70;91.60
80931;DHT22;70388;42.698;23.324;2023-12-20T08:23:34;1.90;91.10
80931;DHT22;70388;42.698;23.324;2023-12-20T08:26:07;2.10;91.00
80931;DHT22;70388;42.698;23.324;2023-12-20T08:28:34;2.30;90.40
80931;DHT22;70388;42.698;23.324;2023-12-20T08:31:00;2.50;90.00
80931;DHT22;70388;42.698;23.324;2023-12-20T08:33:26;2.70;88.80
80931;DHT22;70388;42.698;23.324;2023-12-20T08:35:52;2.90;87.40
80931;DHT22;70388;42.698;23.324;2023-12-20T08:38:17;2.90;87.70
80931;DHT22;70388;42.698;23.324;2023-12-20T08:40:44;3.30;86.80
80931;DHT22;70388;42.698;23.324;2023-12-20T08:43:10;3.50;85.00
80931;DHT22;70388;42.698;23.324;2023-12-20T08:45:36;3.60;83.70
80931;DHT22;70388;42.698;23.324;2023-12-20T08:48:02;3.50;83.40
80931;DHT22;70388;42.698;23.324;2023-12-20T08:50:29;3.50;83.30
80931;DHT22;70388;42.698;23.324;2023-12-20T08:52:55;3.30;83.70
80931;DHT22;70388;42.698;23.324;2023-12-20T08:55:20;3.20;84.80
80931;DHT22;70388;42.698;23.324;2023-12-20T08:57:46;3.10;85.70
80931;DHT22;70388;42.698;23.324;2023-12-20T09:00:13;2.90;86.60
80931;DHT22;70388;42.698;23.324;2023-12-20T09:02:38;2.90;86.80
80931;DHT22;70388;42.698;23.324;2023-12-20T09:05:04;3.10;87.10
80931;DHT22;70388;42.698;23.324;2023-12-20T09:07:30;3.20;86.90
80931;DHT22;70388;42.698;23.324;2023-12-20T09:09:57;3.10;86.00
80931;DHT22;70388;42.698;23.324;2023-12-20T09:12:23;3.20;85.90
80931;DHT22;70388;42.698;23.324;2023-12-20T09:14:50;3.40;85.10
80931;DHT22;70388;42.698;23.324;2023-12-20T09:17:16;3.60;83.80
80931;DHT22;70388;42.698;23.324;2023-12-20T09:19:43;3.60;83.00
80931;DHT22;70388;42.698;23.324;2023-12-20T09:22:12;3.50;83.10
80931;DHT22;70388;42.698;23.324;2023-12-20T09:24:38;3.60;82.70
80931;DHT22;70388;42.698;23.324;2023-12-20T09:27:05;3.60;82.10
80931;DHT22;70388;42.698;23.324;2023-12-20T09:29:31;3.70;81.80
80931;DHT22;70388;42.698;23.324;2023-12-20T09:31:57;3.80;81.70
80931;DHT22;70388;42.698;23.324;2023-12-20T09:34:23;3.80;82.00
80931;DHT22;70388;42.698;23.324;2023-12-20T09:36:51;3.80;81.60
80931;DHT22;70388;42.698;23.324;2023-12-20T09:39:18;4.00;81.20
80931;DHT22;70388;42.698;23.324;2023-12-20T09:42:06;4.10;80.50
80931;DHT22;70388;42.698;23.324;2023-12-20T09:44:33;3.90;81.70
80931;DHT22;70388;42.698;23.324;2023-12-20T09:47:03;4.00;81.30
80931;DHT22;70388;42.698;23.324;2023-12-20T09:49:30;4.20;80.60
80931;DHT22;70388;42.698;23.324;2023-12-20T09:51:56;4.30;80.20
80931;DHT22;70388;42.698;23.324;2023-12-20T09:54:23;4.50;79.80
80931;DHT22;70388;42.698;23.324;2023-12-20T09:56:49;4.50;79.20
80931;DHT22;70388;42.698;23.324;2023-12-20T09:59:15;4.70;79.00
80931;DHT22;70388;42.698;23.324;2023-12-20T10:01:42;4.80;77.70
80931;DHT22;70388;42.698;23.324;2023-12-20T10:04:09;4.70;78.10
80931;DHT22;70388;42.698;23.324;2023-12-20T10:06:44;4.90;77.60
80931;DHT22;70388;42.698;23.324;2023-12-20T10:09:11;5.10;77.40
80931;DHT22;70388;42.698;23.324;2023-12-20T10:11:38;5.30;76.40
80931;DHT22;70388;42.698;23.324;2023-12-20T10:14:05;5.20;75.60
80931;DHT22;70388;42.698;23.324;2023-12-20T10:16:31;5.20;77.10
80931;DHT22;70388;42.698;23.324;2023-12-20T10:18:58;5.30;76.60
80931;DHT22;70388;42.698;23.324;2023-12-20T10:21:25;5.10;76.60
80931;DHT22;70388;42.698;23.324;2023-12-20T10:23:55;5.10;77.00
80931;DHT22;70388;42.698;23.324;2023-12-20T10:26:22;5.10;77.00
80931;DHT22;70388;42.698;23.324;2023-12-20T10:28:53;5.10;77.40
80931;DHT22;70388;42.698;23.324;2023-12-20T10:31:46;5.10;77.10
80931;DHT22;70388;42.698;23.324;2023-12-20T10:34:11;5.00;77.70
80931;DHT22;70388;42.698;23.324;2023-12-20T10:36:37;5.10;77.80
80931;DHT22;70388;42.698;23.324;2023-12-20T10:39:03;5.20;77.10
80931;DHT22;70388;42.698;23.324;2023-12-20T10:41:33;5.00;77.60
80931;DHT22;70388;42.698;23.324;2023-12-20T10:44:02;4.90;78.40
80931;DHT22;70388;42.698;23.324;2023-12-20T10:46:29;4.90;79.30
80931;DHT22;70388;42.698;23.324;2023-12-20T10:48:56;4.80;79.10
80931;DHT22;70388;42.698;23.324;2023-12-20T10:51:23;4.60;80.30
80931;DHT22;70388;42.698;23.324;2023-12-20T10:53:52;4.70;81.00
80931;DHT22;70388;42.698;23.324;2023-12-20T10:56:19;4.70;80.80
80931;DHT22;70388;42.698;23.324;2023-12-20T10:58:45;4.60;81.50
80931;DHT22;70388;42.698;23.324;2023-12-20T11:01:13;4.70;81.50
80931;DHT22;70388;42.698;23.324;2023-12-20T11:03:44;4.60;81.90
80931;DHT22;70388;42.698;23.324;2023-12-20T11:14:46;4.00;85.80
80931;DHT22;70388;42.698;23.324;2023-12-20T11:17:13;4.00;86.90
80931;DHT22;70388;42.698;23.324;2023-12-20T11:22:29;3.90;87.60
80931;DHT22;70388;42.698;23.324;2023-12-20T11:25:05;3.90;88.00
80931;DHT22;70388;42.698;23.324;2023-12-20T11:27:34;3.70;88.90
80931;DHT22;70388;42.698;23.324;2023-12-20T11:30:03;3.80;89.60
80931;DHT22;70388;42.698;23.324;2023-12-20T11:32:34;3.80;89.30
80931;DHT22;70388;42.698;23.324;2023-12-20T11:35:20;3.90;89.70
80931;DHT22;70388;42.698;23.324;2023-12-20T11:37:46;4.00;89.20
80931;DHT22;70388;42.698;23.324;2023-12-20T11:40:16;3.90;89.20
80931;DHT22;70388;42.698;23.324;2023-12-20T11:42:48;3.90;89.00
80931;DHT22;70388;42.698;23.324;2023-12-20T11:45:16;3.60;90.30
80931;DHT22;70388;42.698;23.324;2023-12-20T11:47:51;3.70;90.70
80931;DHT22;70388;42.698;23.324;2023-12-20T11:50:20;3.70;90.70
80931;DHT22;70388;42.698;23.324;2023-12-20T11:52:47;3.70;90.60
80931;DHT22;70388;42.698;23.324;2023-12-20T11:55:13;3.70;90.90
80931;DHT22;70388;42.698;23.324;2023-12-20T11:57:39;3.70;91.00
80931;DHT22;70388;42.698;23.324;2023-12-20T12:00:05;3.80;90.90
80931;DHT22;70388;42.698;23.324;2023-12-20T12:02:31;3.80;90.90
80931;DHT22;70388;42.698;23.324;2023-12-20T12:04:57;3.80;90.90
80931;DHT22;70388;42.698;23.324;2023-12-20T12:07:24;4.00;90.50
80931;DHT22;70388;42.698;23.324;2023-12-20T12:09:50;4.10;90.50
80931;DHT22;70388;42.698;23.324;2023-12-20T12:12:17;4.10;90.20
80931;DHT22;70388;42.698;23.324;2023-12-20T12:14:45;4.30;89.90
80931;DHT22;70388;42.698;23.324;2023-12-20T12:17:14;4.30;90.10
80931;DHT22;70388;42.698;23.324;2023-12-20T12:19:41;4.30;89.60
80931;DHT22;70388;42.698;23.324;2023-12-20T12:22:14;4.30;89.60
80931;DHT22;70388;42.698;23.324;2023-12-20T12:27:07;4.50;88.10
80931;DHT22;70388;42.698;23.324;2023-12-20T12:29:34;4.60;87.90
80931;DHT22;70388;42.698;23.324;2023-12-20T12:32:00;4.50;88.70
80931;DHT22;70388;42.698;23.324;2023-12-20T12:34:29;4.50;89.00
80931;DHT22;70388;42.698;23.324;2023-12-20T12:36:56;4.60;88.90
80931;DHT22;70388;42.698;23.324;2023-12-20T12:39:23;4.60;88.60
80931;DHT22;70388;42.698;23.324;2023-12-20T12:41:50;4.70;88.50
80931;DHT22;70388;42.698;23.324;2023-12-20T12:44:16;4.70;88.20
80931;DHT22;70388;42.698;23.324;2023-12-20T12:46:46;4.70;88.40
80931;DHT22;70388;42.698;23.324;2023-12-20T12:49:12;4.70;88.60
80931;DHT22;70388;42.698;23.324;2023-12-20T12:51:38;4.60;88.70
80931;DHT22;70388;42.698;23.324;2023-12-20T12:54:04;4.50;89.00
80931;DHT22;70388;42.698;23.324;2023-12-20T12:56:30;4.50;89.20
80931;DHT22;70388;42.698;23.324;2023-12-20T12:58:56;4.50;89.50
80931;DHT22;70388;42.698;23.324;2023-12-20T13:01:21;4.40;89.40
80931;DHT22;70388;42.698;23.324;2023-12-20T13:03:47;4.20;90.40
80931;DHT22;70388;42.698;23.324;2023-12-20T13:06:13;3.90;91.20
80931;DHT22;70388;42.698;23.324;2023-12-20T13:08:39;4.00;91.10
80931;DHT22;70388;42.698;23.324;2023-12-20T13:11:05;4.20;90.80
80931;DHT22;70388;42.698;23.324;2023-12-20T13:13:31;4.20;90.60
80931;DHT22;70388;42.698;23.324;2023-12-20T13:15:57;4.20;90.60
80931;DHT22;70388;42.698;23.324;2023-12-20T13:18:23;4.20;90.60
80931;DHT22;70388;42.698;23.324;2023-12-20T13:20:49;4.20;90.60
80931;DHT22;70388;42.698;23.324;2023-12-20T13:23:15;4.20;90.80
80931;DHT22;70388;42.698;23.324;2023-12-20T13:25:43;4.20;90.90
80931;DHT22;70388;42.698;23.324;2023-12-20T13:28:11;4.20;90.80
80931;DHT22;70388;42.698;23.324;2023-12-20T13:30:37;4.10;91.20
80931;DHT22;70388;42.698;23.324;2023-12-20T13:33:04;4.10;91.20
80931;DHT22;70388;42.698;23.324;2023-12-20T13:35:31;4.20;90.90
80931;DHT22;70388;42.698;23.324;2023-12-20T13:37:57;4.20;90.80
80931;DHT22;70388;42.698;23.324;2023-12-20T13:40:23;4.20;90.70
80931;DHT22;70388;42.698;23.324;2023-12-20T13:42:49;4.20;90.60
80931;DHT22;70388;42.698;23.324;2023-12-20T13:45:15;4.20;90.20
80931;DHT22;70388;42.698;23.324;2023-12-20T13:47:41;4.20;90.20
80931;DHT22;70388;42.698;23.324;2023-12-20T13:50:07;4.20;90.20
80931;DHT22;70388;42.698;23.324;2023-12-20T13:52:33;4.20;90.50
80931;DHT22;70388;42.698;23.324;2023-12-20T13:54:58;4.10;90.60
80931;DHT22;70388;42.698;23.324;2023-12-20T13:57:24;3.90;91.10
80931;DHT22;70388;42.698;23.324;2023-12-20T13:59:50;4.00;91.60
80931;DHT22;70388;42.698;23.324;2023-12-20T14:02:16;4.00;91.60
80931;DHT22;70388;42.698;23.324;2023-12-20T14:04:44;4.00;91.30
80931;DHT22;70388;42.698;23.324;2023-12-20T14:07:10;4.10;91.20
80931;DHT22;70388;42.698;23.324;2023-12-20T14:09:36;4.10;91.30
80931;DHT22;70388;42.698;23.324;2023-12-20T14:12:02;4.00;91.20
80931;DHT22;70388;42.698;23.324;2023-12-20T14:14:28;3.90;91.50
80931;DHT22;70388;42.698;23.324;2023-12-20T14:16:54;3.80;91.60
80931;DHT22;70388;42.698;23.324;2023-12-20T14:19:19;3.80;91.90
80931;DHT22;70388;42.698;23.324;2023-12-20T14:21:45;3.70;92.10
80931;DHT22;70388;42.698;23.324;2023-12-20T14:24:13;3.80;92.10
80931;DHT22;70388;42.698;23.324;2023-12-20T14:26:41;3.70;92.20
80931;DHT22;70388;42.698;23.324;2023-12-20T14:29:07;3.60;92.20
80931;DHT22;70388;42.698;23.324;2023-12-20T14:31:33;3.50;92.70
80931;DHT22;70388;42.698;23.324;2023-12-20T14:33:59;3.60;92.70
80931;DHT22;70388;42.698;23.324;2023-12-20T14:36:26;3.50;92.80
80931;DHT22;70388;42.698;23.324;2023-12-20T14:38:52;3.50;93.00
80931;DHT22;70388;42.698;23.324;2023-12-20T14:41:18;3.50;92.90
80931;DHT22;70388;42.698;23.324;2023-12-20T14:43:44;3.50;93.10
80931;DHT22;70388;42.698;23.324;2023-12-20T14:46:10;3.50;92.50
80931;DHT22;70388;42.698;23.324;2023-12-20T14:48:36;3.50;92.70
80931;DHT22;70388;42.698;23.324;2023-12-20T14:51:02;3.20;93.20
80931;DHT22;70388;42.698;23.324;2023-12-20T14:53:28;3.30;93.50
80931;DHT22;70388;42.698;23.324;2023-12-20T14:55:53;3.20;93.60
80931;DHT22;70388;42.698;23.324;2023-12-20T14:58:19;3.20;93.50
80931;DHT22;70388;42.698;23.324;2023-12-20T15:00:45;3.20;93.60
80931;DHT22;70388;42.698;23.324;2023-12-20T15:03:11;3.30;93.50
80931;DHT22;70388;42.698;23.324;2023-12-20T15:05:37;3.40;93.50
80931;DHT22;70388;42.698;23.324;2023-12-20T15:08:03;3.50;92.80
80931;DHT22;70388;42.698;23.324;2023-12-20T15:10:29;3.50;92.70
80931;DHT22;70388;42.698;23.324;2023-12-20T15:12:56;3.20;93.20
80931;DHT22;70388;42.698;23.324;2023-12-20T15:15:21;3.20;93.80
80931;DHT22;70388;42.698;23.324;2023-12-20T15:17:47;3.10;94.10
80931;DHT22;70388;42.698;23.324;2023-12-20T15:20:13;3.10;94.60
80931;DHT22;70388;42.698;23.324;2023-12-20T15:22:41;3.00;94.60
80931;DHT22;70388;42.698;23.324;2023-12-20T15:25:10;3.10;94.70
80931;DHT22;70388;42.698;23.324;2023-12-20T15:27:36;3.10;94.50
80931;DHT22;70388;42.698;23.324;2023-12-20T15:30:05;3.10;94.70
80931;DHT22;70388;42.698;23.324;2023-12-20T15:32:32;3.00;95.00
80931;DHT22;70388;42.698;23.324;2023-12-20T15:34:58;3.00;94.90
80931;DHT22;70388;42.698;23.324;2023-12-20T15:37:24;3.10;94.50
80931;DHT22;70388;42.698;23.324;2023-12-20T15:39:52;3.10;94.50